Time;durP1;ratioP1;P1;durP2;ratioP2;P2;SDS_P1;SDS_P2;PMS_P1;PMS_P2;Temp;Humidity;BMP_temperature;BMP_pressure;BME280_temperature;BME280_humidity;BME280_pressure;Samples;Min_cycle;Max_cycle;Signal;HPM_P1;HPM_P2
2021/09/24 00:01:12;;;;;;;2.97;2.70;;;16.10;99.90;;;;;;5017767;28;20053;-84
2021/09/24 00:03:39;;;;;;;7.63;3.17;;;16.10;99.90;;;;;;5035087;28;20050;-84
2021/09/24 00:06:07;;;;;;;3.63;3.33;;;16.10;99.90;;;;;;5050133;28;20494;-84
2021/09/24 00:08:33;;;;;;;8.73;3.22;;;15.90;99.90;;;;;;5017777;28;20045;-84
2021/09/24 00:11:00;;;;;;;6.00;3.38;;;15.90;99.90;;;;;;5034555;28;20140;-84
2021/09/24 00:13:27;;;;;;;5.95;3.22;;;15.90;99.90;;;;;;5019672;28;20050;-85
2021/09/24 00:15:54;;;;;;;3.05;2.85;;;15.90;99.90;;;;;;5024588;28;20072;-84
2021/09/24 00:18:21;;;;;;;3.72;3.40;;;15.80;99.90;;;;;;5017311;28;20477;-85
2021/09/24 00:20:48;;;;;;;3.95;3.40;;;15.70;99.90;;;;;;5017468;28;20049;-84
2021/09/24 00:23:15;;;;;;;4.45;3.42;;;15.70;99.90;;;;;;5017153;28;20406;-84
2021/09/24 00:25:42;;;;;;;4.50;2.83;;;15.60;99.90;;;;;;5016895;28;20510;-85
2021/09/24 00:28:09;;;;;;;4.53;3.38;;;15.60;99.90;;;;;;5034731;28;20461;-85
2021/09/24 00:30:36;;;;;;;4.10;3.65;;;15.70;99.90;;;;;;5017098;28;20556;-85
2021/09/24 00:33:03;;;;;;;3.72;3.42;;;15.70;99.90;;;;;;5016856;28;20050;-84
2021/09/24 00:35:30;;;;;;;3.90;3.60;;;15.70;99.90;;;;;;5034223;28;20049;-85
2021/09/24 00:37:57;;;;;;;6.43;3.72;;;15.70;99.90;;;;;;5016944;28;20073;-85
2021/09/24 00:40:24;;;;;;;5.30;3.38;;;15.70;99.90;;;;;;5017080;28;20049;-85
2021/09/24 00:42:51;;;;;;;3.72;3.42;;;15.80;99.90;;;;;;5016965;28;20517;-84
2021/09/24 00:45:18;;;;;;;3.65;3.42;;;15.80;99.90;;;;;;5049595;28;20452;-84
2021/09/24 00:47:45;;;;;;;4.10;3.80;;;15.90;99.90;;;;;;5034345;28;20060;-85
2021/09/24 00:50:12;;;;;;;3.95;3.55;;;15.90;99.90;;;;;;5016801;28;20049;-85
2021/09/24 00:52:39;;;;;;;6.90;3.65;;;15.90;99.90;;;;;;5034071;28;20053;-85
2021/09/24 00:55:06;;;;;;;4.43;3.35;;;15.90;99.90;;;;;;5033742;28;20053;-84
2021/09/24 00:57:33;;;;;;;3.85;3.47;;;15.80;99.90;;;;;;5016683;28;20521;-84
2021/09/24 00:59:59;;;;;;;4.30;3.78;;;15.90;99.90;;;;;;5033533;28;20045;-86
2021/09/24 01:02:26;;;;;;;6.00;3.75;;;15.90;99.90;;;;;;5016583;28;20103;-84
2021/09/24 01:04:55;;;;;;;4.90;3.50;;;16.00;99.90;;;;;;5016295;28;20413;-84
2021/09/24 01:07:22;;;;;;;5.03;3.15;;;16.00;99.90;;;;;;5033647;28;20487;-84
2021/09/24 01:09:49;;;;;;;5.50;3.50;;;16.00;99.90;;;;;;5016210;28;20068;-84
2021/09/24 01:12:16;;;;;;;3.65;3.40;;;16.00;99.90;;;;;;5049041;28;20053;-84
2021/09/24 01:14:43;;;;;;;3.60;3.20;;;16.00;99.90;;;;;;5033632;28;20041;-84
2021/09/24 01:17:10;;;;;;;3.38;3.10;;;16.00;99.90;;;;;;5015566;28;20572;-85
2021/09/24 01:19:37;;;;;;;3.83;3.53;;;16.00;99.90;;;;;;5033641;28;20053;-84
2021/09/24 01:22:04;;;;;;;4.68;3.30;;;16.00;99.90;;;;;;5033455;28;20123;-84
2021/09/24 01:24:30;;;;;;;9.85;3.88;;;16.10;99.90;;;;;;5033504;28;20453;-84
2021/09/24 01:26:57;;;;;;;5.60;3.88;;;16.10;99.90;;;;;;5015918;28;20057;-85
2021/09/24 01:29:26;;;;;;;6.88;3.28;;;16.10;99.90;;;;;;5015778;28;20553;-84
2021/09/24 01:31:56;;;;;;;6.25;3.80;;;16.00;99.90;;;;;;5017173;28;20103;-85
2021/09/24 01:34:23;;;;;;;4.35;3.50;;;16.10;99.90;;;;;;5021073;28;20124;-84
2021/09/24 01:36:50;;;;;;;7.25;3.75;;;16.00;99.90;;;;;;5016709;28;20049;-85
2021/09/24 01:39:17;;;;;;;4.20;3.72;;;16.00;99.90;;;;;;5033164;28;20108;-84
2021/09/24 01:41:48;;;;;;;5.07;4.00;;;16.00;99.90;;;;;;5015714;28;20049;-84
2021/09/24 01:44:15;;;;;;;8.55;4.10;;;16.10;99.90;;;;;;5015836;28;20081;-85
2021/09/24 01:46:45;;;;;;;6.05;3.85;;;16.00;99.90;;;;;;5015532;28;20085;-84
2021/09/24 01:49:12;;;;;;;6.47;3.78;;;16.10;99.90;;;;;;5015449;28;20092;-85
2021/09/24 01:51:42;;;;;;;4.05;3.30;;;16.00;99.90;;;;;;5015745;28;20273;-84
2021/09/24 01:54:12;;;;;;;6.47;3.80;;;15.90;99.90;;;;;;5015574;28;20088;-84
2021/09/24 01:56:39;;;;;;;4.97;3.80;;;15.80;99.90;;;;;;5015521;28;20088;-84
2021/09/24 01:59:06;;;;;;;5.07;4.05;;;15.70;99.90;;;;;;5015320;28;20179;-85
2021/09/24 02:01:33;;;;;;;6.78;4.55;;;15.80;99.90;;;;;;5032897;28;20053;-84
2021/09/24 02:04:01;;;;;;;7.30;4.30;;;15.80;99.90;;;;;;5015489;28;20494;-86
2021/09/24 02:06:28;;;;;;;6.88;4.40;;;15.80;99.90;;;;;;5015305;28;20085;-84
2021/09/24 02:08:55;;;;;;;5.97;4.72;;;15.70;99.90;;;;;;5015264;28;20049;-84
2021/09/24 02:11:23;;;;;;;5.03;4.45;;;15.70;99.90;;;;;;5014217;28;20057;-84
2021/09/24 02:13:49;;;;;;;4.30;3.92;;;15.70;99.90;;;;;;5032650;28;20049;-85
2021/09/24 02:16:16;;;;;;;4.03;3.83;;;15.60;99.90;;;;;;5032571;28;20054;-85
2021/09/24 02:18:43;;;;;;;5.22;3.95;;;15.60;99.90;;;;;;5015193;28;20073;-84
2021/09/24 02:21:10;;;;;;;6.38;4.50;;;15.60;99.90;;;;;;5015205;28;20060;-85
2021/09/24 02:23:37;;;;;;;4.25;3.58;;;15.60;99.90;;;;;;5032774;28;20050;-84
2021/09/24 02:26:05;;;;;;;8.00;4.18;;;15.50;99.90;;;;;;5015383;28;20050;-85
2021/09/24 02:28:33;;;;;;;4.95;4.35;;;15.50;99.90;;;;;;5015150;28;20532;-85
2021/09/24 02:31:00;;;;;;;7.72;5.45;;;15.50;99.90;;;;;;5015116;28;20116;-85
2021/09/24 02:33:27;;;;;;;8.38;5.88;;;15.30;99.90;;;;;;5032910;28;20045;-85
2021/09/24 02:35:54;;;;;;;7.78;6.13;;;15.10;99.90;;;;;;5032640;28;20073;-85
2021/09/24 02:38:21;;;;;;;7.45;6.75;;;15.00;99.90;;;;;;5033033;28;20092;-86
2021/09/24 02:40:48;;;;;;;8.18;7.38;;;14.80;99.90;;;;;;5015462;28;20052;-86
2021/09/24 02:43:15;;;;;;;9.43;7.82;;;14.70;99.90;;;;;;5015766;28;20057;-87
2021/09/24 02:45:41;;;;;;;9.75;8.77;;;14.60;99.90;;;;;;5015521;28;20082;-87
2021/09/24 02:48:08;;;;;;;10.95;9.85;;;14.60;99.90;;;;;;5015870;28;20064;-89
2021/09/24 02:50:35;;;;;;;10.55;9.55;;;14.40;99.90;;;;;;5038220;28;20084;-90
2021/09/24 02:53:03;;;;;;;12.15;10.95;;;14.40;99.90;;;;;;5040294;28;20053;-87
2021/09/24 02:55:30;;;;;;;13.05;11.88;;;14.20;99.90;;;;;;5023688;28;20456;-88
2021/09/24 02:57:57;;;;;;;15.98;12.10;;;14.10;99.90;;;;;;5015876;28;20095;-88
2021/09/24 03:00:26;;;;;;;12.10;10.90;;;14.10;99.90;;;;;;5015681;28;20076;-88
2021/09/24 03:02:53;;;;;;;11.30;10.23;;;14.00;99.90;;;;;;5015504;28;20107;-88
2021/09/24 03:05:20;;;;;;;7.53;6.82;;;14.00;99.90;;;;;;5015511;28;20057;-87
2021/09/24 03:07:47;;;;;;;6.20;5.70;;;14.00;99.90;;;;;;5015606;28;20053;-89
2021/09/24 03:10:14;;;;;;;5.70;4.80;;;13.90;99.90;;;;;;5011882;28;20061;-87
2021/09/24 03:12:41;;;;;;;4.47;4.07;;;13.80;99.90;;;;;;5044970;28;20140;-86
2021/09/24 03:15:10;;;;;;;3.15;2.95;;;13.70;99.90;;;;;;5044843;28;20058;-87
2021/09/24 03:17:37;;;;;;;3.40;3.10;;;13.70;99.90;;;;;;5044918;28;20081;-87
2021/09/24 03:20:06;;;;;;;2.33;2.15;;;13.60;99.90;;;;;;5044920;28;20165;-87
2021/09/24 03:22:33;;;;;;;1.92;1.55;;;13.60;99.90;;;;;;5046688;28;20076;-87
2021/09/24 03:25:00;;;;;;;1.42;1.33;;;13.50;99.90;;;;;;5048389;28;20045;-88
2021/09/24 03:27:28;;;;;;;1.52;1.45;;;13.50;99.90;;;;;;5048041;28;20054;-87
2021/09/24 03:29:54;;;;;;;1.30;1.30;;;13.40;99.90;;;;;;5048445;28;20448;-88
2021/09/24 03:32:21;;;;;;;1.27;1.17;;;13.40;99.90;;;;;;5048277;28;20050;-89
2021/09/24 03:34:49;;;;;;;1.90;1.50;;;13.40;99.90;;;;;;5047954;28;20049;-88
2021/09/24 03:37:16;;;;;;;1.00;0.82;;;13.40;99.90;;;;;;5048034;28;20487;-87
2021/09/24 03:39:44;;;;;;;1.00;1.00;;;13.50;99.90;;;;;;5048271;28;20050;-87
2021/09/24 03:42:11;;;;;;;1.30;1.20;;;13.40;99.90;;;;;;5048248;28;20479;-87
2021/09/24 03:44:38;;;;;;;1.52;1.20;;;13.40;99.90;;;;;;5047978;28;20050;-86
2021/09/24 03:47:05;;;;;;;1.27;1.10;;;13.40;99.90;;;;;;5047717;28;20049;-87
2021/09/24 03:49:32;;;;;;;1.30;1.20;;;13.40;99.90;;;;;;5047784;28;20076;-86
2021/09/24 03:52:00;;;;;;;1.42;1.35;;;13.50;99.90;;;;;;5047872;28;20054;-87
2021/09/24 03:54:28;;;;;;;1.45;1.30;;;13.40;99.90;;;;;;5047963;28;20042;-87
2021/09/24 03:56:55;;;;;;;1.40;1.30;;;13.40;99.90;;;;;;5047815;28;20419;-87
2021/09/24 03:59:22;;;;;;;4.35;1.60;;;13.40;99.90;;;;;;5047681;28;20054;-86
2021/09/24 04:01:49;;;;;;;1.20;1.10;;;13.40;99.90;;;;;;5047738;28;20053;-86
2021/09/24 04:04:16;;;;;;;1.08;0.95;;;13.30;99.90;;;;;;5047439;28;20104;-86
2021/09/24 04:06:43;;;;;;;1.50;1.40;;;13.30;99.90;;;;;;5047244;28;20081;-86
2021/09/24 04:09:10;;;;;;;1.60;1.50;;;13.30;99.90;;;;;;5048374;28;20049;-86
2021/09/24 04:11:40;;;;;;;1.67;1.40;;;13.30;99.90;;;;;;5064684;28;20069;-85
2021/09/24 04:14:07;;;;;;;3.05;1.80;;;13.40;99.90;;;;;;5052105;28;20481;-86
2021/09/24 04:16:34;;;;;;;1.80;1.70;;;13.30;99.90;;;;;;5047167;28;20057;-86
2021/09/24 04:19:01;;;;;;;1.50;1.50;;;13.30;99.90;;;;;;5047273;28;20069;-86
2021/09/24 04:21:28;;;;;;;1.35;1.25;;;13.40;99.90;;;;;;5047208;28;20050;-86
2021/09/24 04:23:54;;;;;;;1.77;1.67;;;13.40;99.90;;;;;;5047319;28;20100;-86
2021/09/24 04:26:21;;;;;;;1.75;1.55;;;13.40;99.90;;;;;;5046926;28;20050;-86
2021/09/24 04:28:48;;;;;;;1.45;1.45;;;13.30;99.90;;;;;;5046811;28;20045;-86
2021/09/24 04:31:15;;;;;;;2.97;1.38;;;13.40;99.90;;;;;;5046869;28;20062;-86
2021/09/24 04:33:41;;;;;;;2.33;1.90;;;13.40;99.90;;;;;;5046313;28;20050;-86
2021/09/24 04:36:08;;;;;;;2.85;1.88;;;13.40;99.90;;;;;;5046952;28;20482;-86
2021/09/24 04:38:35;;;;;;;6.07;1.75;;;13.40;99.90;;;;;;5014056;28;20418;-86
2021/09/24 04:41:02;;;;;;;6.13;2.30;;;13.40;99.90;;;;;;5046528;28;20046;-86
2021/09/24 04:43:30;;;;;;;5.18;2.22;;;13.40;99.90;;;;;;5013780;28;20058;-86
2021/09/24 04:45:57;;;;;;;10.60;2.55;;;13.50;99.90;;;;;;5046572;28;20052;-86
2021/09/24 04:48:24;;;;;;;5.05;2.50;;;13.50;99.90;;;;;;5014679;28;20056;-86
2021/09/24 04:50:50;;;;;;;2.47;2.28;;;13.40;99.90;;;;;;5046559;28;20422;-85
2021/09/24 04:53:17;;;;;;;3.35;2.47;;;13.50;99.90;;;;;;5014545;28;20042;-85
2021/09/24 04:55:44;;;;;;;3.78;3.28;;;13.40;99.90;;;;;;5014376;28;20053;-86
2021/09/24 04:58:11;;;;;;;3.35;2.92;;;13.40;99.90;;;;;;5046289;28;20486;-85
2021/09/24 05:00:37;;;;;;;3.75;2.97;;;13.50;99.90;;;;;;5014513;28;20064;-86
2021/09/24 05:03:04;;;;;;;3.33;2.80;;;13.50;99.90;;;;;;5014177;28;20137;-86
2021/09/24 05:05:31;;;;;;;4.13;2.20;;;13.60;99.90;;;;;;5045886;28;20054;-85
2021/09/24 05:07:58;;;;;;;2.92;2.70;;;13.50;99.90;;;;;;5045807;28;20101;-86
2021/09/24 05:10:25;;;;;;;5.65;2.70;;;13.60;99.90;;;;;;5045928;28;20061;-86
2021/09/24 05:12:51;;;;;;;2.88;2.72;;;13.60;99.90;;;;;;5014120;28;20491;-86
2021/09/24 05:15:18;;;;;;;2.72;2.50;;;13.60;99.90;;;;;;5014001;28;20483;-85
2021/09/24 05:17:45;;;;;;;2.88;2.65;;;13.60;99.90;;;;;;5045865;28;20050;-86
2021/09/24 05:20:12;;;;;;;2.80;2.60;;;13.60;99.90;;;;;;5045895;28;20048;-85
2021/09/24 05:22:39;;;;;;;4.65;2.60;;;13.60;99.90;;;;;;5014128;28;20045;-85
2021/09/24 05:25:06;;;;;;;5.65;2.47;;;13.60;99.90;;;;;;5045993;28;20050;-86
2021/09/24 05:27:33;;;;;;;2.92;2.70;;;13.60;99.90;;;;;;5046056;28;20049;-85
2021/09/24 05:30:00;;;;;;;2.25;2.05;;;13.50;99.90;;;;;;5018369;28;20060;-86
2021/09/24 05:32:26;;;;;;;5.28;3.03;;;13.50;99.90;;;;;;5020391;28;20050;-86
2021/09/24 05:34:54;;;;;;;3.15;2.72;;;13.60;99.90;;;;;;5012883;28;20136;-85
2021/09/24 05:37:20;;;;;;;2.53;2.33;;;13.60;99.90;;;;;;5045778;28;20049;-85
2021/09/24 05:39:47;;;;;;;4.38;2.65;;;13.60;99.90;;;;;;5045363;28;20048;-85
2021/09/24 05:42:15;;;;;;;4.47;2.80;;;13.50;99.90;;;;;;5013722;28;20049;-85
2021/09/24 05:44:42;;;;;;;5.57;2.78;;;13.60;99.90;;;;;;5012575;28;20049;-85
2021/09/24 05:47:23;;;;;;;3.83;2.88;;;13.60;99.90;;;;;;5011517;28;20054;-85
2021/09/24 05:49:49;;;;;;;3.13;2.72;;;13.60;99.90;;;;;;5012709;28;20046;-85
2021/09/24 05:52:16;;;;;;;5.22;2.63;;;13.60;99.90;;;;;;5012836;28;20056;-85
2021/09/24 05:54:43;;;;;;;6.43;2.80;;;13.50;99.90;;;;;;5045375;28;20422;-85
2021/09/24 05:57:10;;;;;;;4.10;2.95;;;13.60;99.90;;;;;;5045348;28;20045;-85
2021/09/24 05:59:36;;;;;;;4.82;2.72;;;13.50;99.90;;;;;;5013772;28;20436;-85
2021/09/24 06:02:04;;;;;;;3.20;2.90;;;13.60;99.90;;;;;;5012518;28;20108;-85
2021/09/24 06:04:31;;;;;;;7.82;3.15;;;13.60;99.90;;;;;;5013653;28;20046;-85
2021/09/24 06:06:57;;;;;;;3.80;2.90;;;13.60;99.90;;;;;;5013102;28;20482;-85
2021/09/24 06:09:24;;;;;;;4.90;3.10;;;13.50;99.90;;;;;;5013583;28;20081;-85
2021/09/24 06:11:51;;;;;;;5.03;2.65;;;13.60;99.90;;;;;;5045061;28;20457;-85
2021/09/24 06:14:18;;;;;;;33.00;23.35;;;13.60;99.90;;;;;;5013596;28;20056;-85
2021/09/24 06:16:45;;;;;;;31.52;24.98;;;13.70;99.90;;;;;;5013351;28;20137;-85
2021/09/24 06:19:11;;;;;;;9.60;6.18;;;13.70;99.90;;;;;;5012010;28;20052;-85
2021/09/24 06:21:40;;;;;;;6.53;4.32;;;13.80;99.90;;;;;;5044829;28;20089;-85
2021/09/24 06:24:10;;;;;;;3.45;3.20;;;13.70;99.90;;;;;;5013617;28;20046;-85
2021/09/24 06:26:37;;;;;;;3.20;2.95;;;13.80;99.90;;;;;;5013287;28;20053;-85
2021/09/24 06:29:04;;;;;;;3.17;2.80;;;13.80;99.90;;;;;;5044683;28;20046;-84
2021/09/24 06:31:34;;;;;;;6.18;4.60;;;13.80;99.90;;;;;;5013029;28;20406;-86
2021/09/24 06:34:01;;;;;;;6.00;4.70;;;13.90;99.90;;;;;;5044523;28;20048;-85
2021/09/24 06:36:28;;;;;;;7.50;3.60;;;13.80;99.90;;;;;;5044955;28;20053;-85
2021/09/24 06:38:55;;;;;;;3.97;3.67;;;13.80;99.90;;;;;;5044944;28;20049;-85
2021/09/24 06:41:22;;;;;;;3.88;3.47;;;13.90;99.90;;;;;;5013066;28;20050;-85
2021/09/24 06:43:49;;;;;;;3.70;3.40;;;13.90;99.90;;;;;;5012987;28;20048;-85
2021/09/24 06:46:34;;;;;;;6.65;3.55;;;14.00;99.90;;;;;;5012776;28;20054;-85
2021/09/24 06:49:01;;;;;;;4.25;3.15;;;14.00;99.90;;;;;;5014031;28;20054;-85
2021/09/24 06:51:28;;;;;;;13.88;3.47;;;14.00;99.90;;;;;;5050188;28;20056;-84
2021/09/24 06:53:55;;;;;;;5.90;5.30;;;14.00;99.90;;;;;;5013653;28;20057;-85
2021/09/24 06:56:21;;;;;;;7.70;5.53;;;14.10;99.90;;;;;;5012833;28;20046;-85
2021/09/24 06:58:48;;;;;;;5.47;4.60;;;14.10;99.90;;;;;;5016698;28;20050;-85
2021/09/24 07:01:15;;;;;;;5.70;2.97;;;14.10;99.90;;;;;;5016680;28;20041;-85
2021/09/24 07:03:42;;;;;;;4.30;3.00;;;14.10;99.90;;;;;;5016768;28;20426;-85
2021/09/24 07:06:09;;;;;;;5.22;3.42;;;14.10;99.90;;;;;;5016514;28;20041;-85
2021/09/24 07:08:35;;;;;;;6.70;4.03;;;14.00;99.90;;;;;;5016577;28;20082;-85
2021/09/24 07:11:02;;;;;;;4.97;3.67;;;14.00;99.90;;;;;;5015404;28;20085;-86
2021/09/24 07:13:29;;;;;;;6.72;4.22;;;14.00;99.90;;;;;;5048442;28;20057;-86
2021/09/24 07:15:56;;;;;;;5.20;3.72;;;14.10;99.90;;;;;;5048508;28;20054;-87
2021/09/24 07:18:23;;;;;;;4.68;3.55;;;14.10;99.90;;;;;;5016615;28;20066;-87
2021/09/24 07:20:49;;;;;;;5.70;3.95;;;14.10;99.90;;;;;;5016473;28;20060;-87
2021/09/24 07:23:19;;;;;;;6.03;3.70;;;14.10;99.90;;;;;;5047656;28;20049;-87
2021/09/24 07:25:45;;;;;;;5.00;3.40;;;14.10;99.90;;;;;;5016433;28;20056;-87
2021/09/24 07:28:12;;;;;;;5.07;3.30;;;14.00;99.90;;;;;;5048073;28;20050;-87
2021/09/24 07:30:40;;;;;;;4.10;3.38;;;14.00;99.90;;;;;;5048023;28;20053;-87
2021/09/24 07:33:07;;;;;;;4.20;3.35;;;14.20;99.90;;;;;;5048267;28;20054;-88
2021/09/24 07:35:34;;;;;;;5.03;3.10;;;14.10;99.90;;;;;;5048181;28;20077;-88
2021/09/24 07:38:02;;;;;;;4.70;3.50;;;14.20;99.90;;;;;;5047918;28;20574;-87
2021/09/24 07:40:29;;;;;;;6.60;3.30;;;14.30;99.90;;;;;;5016178;28;20050;-86
2021/09/24 07:42:56;;;;;;;5.53;3.25;;;14.30;99.90;;;;;;5014976;28;20419;-88
2021/09/24 07:45:24;;;;;;;5.85;3.95;;;14.40;99.90;;;;;;5015903;28;20482;-88
2021/09/24 07:47:51;;;;;;;7.20;4.50;;;14.50;99.90;;;;;;5047832;28;20447;-88
2021/09/24 07:50:18;;;;;;;5.07;3.67;;;14.60;99.90;;;;;;5016055;28;20050;-88
2021/09/24 07:52:45;;;;;;;7.05;3.88;;;14.60;99.90;;;;;;5047854;28;20058;-87
2021/09/24 07:55:12;;;;;;;3.47;3.05;;;14.70;99.90;;;;;;5047457;28;20505;-88
2021/09/24 07:57:39;;;;;;;3.92;3.47;;;14.70;99.90;;;;;;5015777;28;20057;-88
2021/09/24 08:00:07;;;;;;;3.40;3.10;;;14.70;99.90;;;;;;5013673;28;20479;-88
2021/09/24 08:02:34;;;;;;;3.45;3.13;;;14.70;99.90;;;;;;5047790;28;20149;-87
2021/09/24 08:05:02;;;;;;;6.70;3.92;;;14.70;99.90;;;;;;5015644;28;20045;-88
2021/09/24 08:07:28;;;;;;;4.78;3.70;;;14.70;99.90;;;;;;5047475;28;20050;-88
2021/09/24 08:09:56;;;;;;;6.93;4.05;;;14.80;99.90;;;;;;5060988;28;20050;-87
2021/09/24 08:12:22;;;;;;;8.02;4.82;;;14.80;99.90;;;;;;5027305;28;20057;-88
2021/09/24 08:14:58;;;;;;;6.45;4.38;;;14.80;99.90;;;;;;5035164;28;20084;-88
2021/09/24 08:17:25;;;;;;;5.32;4.00;;;14.80;99.90;;;;;;5017893;28;20045;-87
2021/09/24 08:19:52;;;;;;;6.82;4.47;;;14.90;99.90;;;;;;5017767;28;20045;-87
2021/09/24 08:22:19;;;;;;;4.45;4.03;;;15.00;99.90;;;;;;5017809;28;20056;-87
2021/09/24 08:24:46;;;;;;;6.95;4.93;;;15.00;99.90;;;;;;5034888;28;20046;-87
2021/09/24 08:27:13;;;;;;;6.45;3.60;;;15.20;99.90;;;;;;5017809;28;20100;-87
2021/09/24 08:29:40;;;;;;;4.63;2.97;;;15.30;99.90;;;;;;5017608;28;20049;-87
2021/09/24 08:32:07;;;;;;;3.42;3.08;;;15.30;99.90;;;;;;5017595;28;20470;-87
2021/09/24 08:34:34;;;;;;;10.98;3.20;;;15.50;99.90;;;;;;5017425;28;20049;-86
2021/09/24 08:37:02;;;;;;;7.50;5.72;;;15.40;99.90;;;;;;5034490;28;20498;-86
2021/09/24 08:39:28;;;;;;;7.47;5.72;;;15.60;99.90;;;;;;5034931;28;20075;-87
2021/09/24 08:41:55;;;;;;;5.82;4.90;;;15.60;99.90;;;;;;5017312;28;20053;-86
2021/09/24 08:44:24;;;;;;;4.25;3.95;;;15.70;99.90;;;;;;5017325;28;20046;-87
2021/09/24 08:46:51;;;;;;;5.88;4.70;;;15.70;99.90;;;;;;5017029;28;20085;-86
2021/09/24 08:49:21;;;;;;;7.38;4.45;;;15.70;99.90;;;;;;5017012;28;20493;-86
2021/09/24 08:51:48;;;;;;;5.57;4.05;;;15.80;99.90;;;;;;5034430;28;20107;-87
2021/09/24 08:54:14;;;;;;;4.72;2.83;;;16.00;99.90;;;;;;5017200;28;20056;-87
2021/09/24 08:56:41;;;;;;;3.10;2.72;;;16.20;99.90;;;;;;5034417;28;20108;-86
2021/09/24 08:59:08;;;;;;;2.90;2.70;;;16.30;99.90;;;;;;5015772;28;20045;-86
2021/09/24 09:01:35;;;;;;;6.80;4.60;;;16.40;99.90;;;;;;5016858;28;20136;-87
2021/09/24 09:04:06;;;;;;;5.20;3.70;;;16.50;99.90;;;;;;5048969;28;20458;-86
2021/09/24 09:06:33;;;;;;;3.90;2.78;;;16.50;99.90;;;;;;5034059;28;20128;-85
2021/09/24 09:09:04;;;;;;;3.17;2.15;;;16.50;99.90;;;;;;5016507;28;20502;-87
2021/09/24 09:11:32;;;;;;;3.70;2.10;;;16.50;99.90;;;;;;5016530;28;20565;-86
2021/09/24 09:14:02;;;;;;;3.38;2.08;;;16.60;99.90;;;;;;5049428;28;20096;-85
2021/09/24 09:16:33;;;;;;;3.00;2.60;;;16.60;99.90;;;;;;5049403;28;20132;-86
2021/09/24 09:19:08;;;;;;;3.35;3.05;;;16.60;99.90;;;;;;5016194;28;20049;-86
2021/09/24 09:21:38;;;;;;;4.65;3.47;;;16.50;99.90;;;;;;5033667;28;20128;-85
2021/09/24 09:24:17;;;;;;;6.45;3.08;;;16.50;99.90;;;;;;5016427;28;20065;-85
2021/09/24 09:26:45;;;;;;;4.15;2.85;;;16.40;99.90;;;;;;5033672;28;20156;-85
2021/09/24 09:29:14;;;;;;;3.53;3.17;;;16.40;99.90;;;;;;5023142;28;20051;-85
2021/09/24 09:32:01;;;;;;;4.40;2.97;;;16.60;99.90;;;;;;5020423;28;20454;-85
2021/09/24 09:34:36;;;;;;;3.65;2.88;;;16.80;99.90;;;;;;5016199;28;20053;-85
2021/09/24 09:37:20;;;;;;;2.88;2.67;;;16.90;99.90;;;;;;5015774;28;20060;-85
2021/09/24 09:40:06;;;;;;;4.07;3.17;;;16.80;99.90;;;;;;5015962;28;20057;-84
2021/09/24 09:42:38;;;;;;;3.78;3.20;;;16.90;99.90;;;;;;5015843;28;20055;-85
2021/09/24 09:45:07;;;;;;;4.47;2.58;;;17.00;99.90;;;;;;5032692;28;20053;-84
2021/09/24 09:47:37;;;;;;;4.00;2.47;;;17.30;99.90;;;;;;5032997;28;20046;-84
2021/09/24 09:50:10;;;;;;;7.80;2.55;;;17.80;99.90;;;;;;5015695;28;20053;-85
2021/09/24 09:53:05;;;;;;;5.30;2.80;;;18.20;99.90;;;;;;5016257;28;20504;-84
2021/09/24 09:55:34;;;;;;;6.88;3.28;;;18.60;99.90;;;;;;5015211;28;20049;-85
2021/09/24 09:58:06;;;;;;;3.58;2.22;;;18.90;99.90;;;;;;5015401;28;20490;-84
2021/09/24 10:00:35;;;;;;;2.63;2.15;;;19.00;99.90;;;;;;5015462;28;20115;-84
2021/09/24 10:03:04;;;;;;;2.58;2.20;;;19.00;99.90;;;;;;5047965;28;20095;-84
2021/09/24 10:05:38;;;;;;;3.05;2.42;;;18.70;99.90;;;;;;5015143;28;20490;-84
2021/09/24 10:08:21;;;;;;;3.92;2.30;;;18.60;99.90;;;;;;5015048;28;20061;-84
2021/09/24 10:11:01;;;;;;;2.10;2.00;;;18.60;99.90;;;;;;5032361;28;20067;-84
2021/09/24 10:13:32;;;;;;;2.25;2.13;;;18.60;99.90;;;;;;5032654;28;20042;-83
2021/09/24 10:15:59;;;;;;;4.72;2.22;;;18.40;99.90;;;;;;5032511;28;20067;-84
2021/09/24 10:18:26;;;;;;;4.00;2.25;;;18.40;99.90;;;;;;5032561;28;20083;-83
2021/09/24 10:20:53;;;;;;;5.30;2.55;;;18.30;99.90;;;;;;5032351;28;20045;-84
2021/09/24 10:23:20;;;;;;;2.38;1.98;;;17.90;99.90;;;;;;5015163;28;20466;-84
2021/09/24 10:25:55;;;;;;;3.83;2.22;;;18.00;99.90;;;;;;5032287;28;20071;-83
2021/09/24 10:28:28;;;;;;;2.22;2.10;;;18.10;99.90;;;;;;5015045;28;20057;-84
2021/09/24 10:30:56;;;;;;;2.35;2.15;;;18.30;99.90;;;;;;5032180;28;20049;-84
2021/09/24 10:33:43;;;;;;;3.33;2.22;;;18.50;99.90;;;;;;5018401;28;20076;-83
2021/09/24 10:36:10;;;;;;;2.35;2.10;;;18.60;99.90;;;;;;5018859;28;20045;-84
2021/09/24 10:38:45;;;;;;;4.30;1.90;;;19.20;99.90;;;;;;5036419;28;20441;-84
2021/09/24 10:41:14;;;;;;;5.55;2.42;;;20.10;99.90;;;;;;5036343;28;20409;-84
2021/09/24 10:43:43;;;;;;;2.45;1.80;;;20.70;99.90;;;;;;5036335;28;20076;-84
2021/09/24 10:46:25;;;;;;;2.10;1.90;;;20.80;99.90;;;;;;5036329;28;20498;-84
2021/09/24 10:49:15;;;;;;;7.72;2.28;;;21.30;99.90;;;;;;5021735;28;20072;-83
2021/09/24 10:52:08;;;;;;;2.13;1.40;;;22.00;99.90;;;;;;5019733;28;20111;-84
2021/09/24 10:54:55;;;;;;;2.75;1.75;;;22.80;99.90;;;;;;5036324;28;20071;-84
2021/09/24 10:57:22;;;;;;;1.60;1.50;;;22.90;99.90;;;;;;5035867;28;20494;-84
2021/09/24 10:59:49;;;;;;;4.95;2.00;;;23.00;99.90;;;;;;5018511;28;20124;-84
2021/09/24 11:02:38;;;;;;;6.30;2.08;;;22.50;99.90;;;;;;5036002;28;20132;-84
2021/09/24 11:05:07;;;;;;;5.03;2.28;;;21.70;99.90;;;;;;5018189;28;20566;-83
2021/09/24 11:07:35;;;;;;;3.17;2.20;;;22.10;99.90;;;;;;5035773;28;20060;-84
2021/09/24 11:10:05;;;;;;;3.22;2.13;;;22.40;99.90;;;;;;5014596;28;20116;-84
2021/09/24 11:12:32;;;;;;;8.52;2.40;;;22.40;99.90;;;;;;5047701;28;20046;-84
2021/09/24 11:15:14;;;;;;;5.18;1.83;;;22.40;99.90;;;;;;5047268;28;20415;-83
2021/09/24 11:17:44;;;;;;;2.67;2.47;;;21.90;99.90;;;;;;5014743;28;20042;-82
2021/09/24 11:20:27;;;;;;;2.42;2.22;;;21.50;99.90;;;;;;5047738;28;20479;-83
2021/09/24 11:22:54;;;;;;;2.60;2.40;;;21.30;99.90;;;;;;5014434;28;20046;-83
2021/09/24 11:25:21;;;;;;;4.28;2.30;;;20.80;99.90;;;;;;5046985;28;20056;-83
2021/09/24 11:27:48;;;;;;;4.47;2.40;;;20.60;99.90;;;;;;5047176;28;20060;-83
2021/09/24 11:30:18;;;;;;;2.63;2.42;;;20.40;99.90;;;;;;5015932;28;20053;-83
2021/09/24 11:32:54;;;;;;;4.38;2.35;;;20.30;99.90;;;;;;5014469;28;20046;-83
2021/09/24 11:35:48;;;;;;;5.55;2.78;;;20.10;99.90;;;;;;5046969;28;20504;-83
2021/09/24 11:38:21;;;;;;;3.38;2.50;;;20.00;99.90;;;;;;5015728;28;20058;-84
2021/09/24 11:40:53;;;;;;;4.15;2.70;;;19.80;99.90;;;;;;5014450;28;20092;-83
2021/09/24 11:43:26;;;;;;;6.03;3.40;;;19.60;99.90;;;;;;5015445;28;20054;-83
2021/09/24 11:45:54;;;;;;;5.10;3.10;;;19.50;99.90;;;;;;5014059;28;20129;-83
2021/09/24 11:48:33;;;;;;;13.38;3.05;;;19.50;99.90;;;;;;5015290;28;20056;-82
2021/09/24 11:51:17;;;;;;;2.97;2.70;;;19.70;99.90;;;;;;5047199;28;20509;-83
2021/09/24 11:53:46;;;;;;;3.60;2.97;;;20.10;99.90;;;;;;5046718;28;20060;-84
2021/09/24 11:56:18;;;;;;;2.95;2.55;;;20.70;99.90;;;;;;5047077;28;20479;-83
2021/09/24 11:58:45;;;;;;;9.18;2.05;;;21.20;99.90;;;;;;5046920;28;20050;-84
2021/09/24 12:01:15;;;;;;;6.03;2.95;;;21.50;99.90;;;;;;5014860;28;20410;-84
2021/09/24 12:03:41;;;;;;;3.55;2.45;;;21.60;99.90;;;;;;5013919;28;20054;-83
2021/09/24 12:06:12;;;;;;;3.20;2.60;;;21.50;99.90;;;;;;5047164;28;20041;-84
2021/09/24 12:08:48;;;;;;;4.15;2.42;;;21.20;99.90;;;;;;5049786;28;20406;-84
2021/09/24 12:11:24;;;;;;;3.53;2.53;;;21.30;99.90;;;;;;5029158;28;20061;-83
2021/09/24 12:14:02;;;;;;;2.65;2.40;;;21.50;99.90;;;;;;5050191;28;20110;-85
2021/09/24 12:16:37;;;;;;;3.95;2.10;;;21.60;99.90;;;;;;5017200;28;20056;-85
2021/09/24 12:19:13;;;;;;;3.42;2.53;;;21.50;99.90;;;;;;5017744;28;20081;-84
2021/09/24 12:21:40;;;;;;;3.63;2.20;;;21.20;99.90;;;;;;5017438;28;20418;-85
2021/09/24 12:24:16;;;;;;;3.88;2.53;;;21.20;99.90;;;;;;5017508;28;20395;-87
2021/09/24 12:26:45;;;;;;;2.67;2.45;;;21.40;99.90;;;;;;5017165;28;20053;-85
2021/09/24 12:29:25;;;;;;;4.63;2.53;;;21.30;99.90;;;;;;5035120;28;20045;-84
2021/09/24 12:31:54;;;;;;;5.32;2.35;;;21.20;99.90;;;;;;5017223;28;20046;-85
2021/09/24 12:34:39;;;;;;;5.57;2.40;;;21.30;99.90;;;;;;5034681;28;20144;-84
2021/09/24 12:37:06;;;;;;;2.80;2.22;;;21.30;99.90;;;;;;5016769;28;20148;-85
2021/09/24 12:39:35;;;;;;;3.40;2.47;;;21.30;99.90;;;;;;5050046;28;20419;-85
2021/09/24 12:42:07;;;;;;;2.97;2.53;;;21.10;99.90;;;;;;5016920;28;20413;-85
2021/09/24 12:44:47;;;;;;;18.35;3.58;;;21.20;99.90;;;;;;5017056;28;20049;-85
2021/09/24 12:47:29;;;;;;;4.80;3.30;;;21.30;99.90;;;;;;5016833;28;20053;-85
2021/09/24 12:49:58;;;;;;;3.28;2.97;;;21.20;99.90;;;;;;5016469;28;20068;-85
2021/09/24 12:52:28;;;;;;;4.65;2.90;;;21.30;99.90;;;;;;5016838;28;20045;-86
2021/09/24 12:54:58;;;;;;;3.80;3.50;;;21.30;99.90;;;;;;5015874;28;20053;-85